Latest Coastal Weather Observations for Geraldton Airport

IDW60701

Issued at 8:52 am WST Saturday 20 December 2014 (issued every 10 minutes, with the page automatically refreshed every 10 minutes)

About coastal observations | Map of coastal stations | Coastal observations for WA | Marine services | Other Formats
Station Details ID: 008315 Name: GERALDTON AIRPORT Lat: -28.80 Lon: 114.70 Height: 29.7 m
Data from the previous 72 hours. | See also: Recent months at Geraldton Airport
Date/Time
WST
Temp

°C
Wind Pressure Rain
since 9am
mm
Weather Cloud Vis
km
Sea
Height
m
Swell
Dir
 
Speed
knots
Gust
knots
hPa Trend Height
m
Period
s
Dir
20/08:30am 21.1 SSW 12 17 1012.5 - 0.0 - Mostly cloudy 10 - - - -
20/08:00am 20.9 SSW 14 20 1012.2 - 0.0 - Mostly cloudy 10 - - - -
20/07:30am 20.5 SSW 14 21 1012.1 - 0.0 - Mostly cloudy 10 - - - -
20/07:00am 20.6 SSW 14 18 1011.8 - 0.0 - Mostly cloudy 10 - - - -
20/06:30am 20.6 SW 13 17 1011.4 - 0.0 - Mostly clear 10 - - - -
20/06:00am 20.4 SW 13 17 1010.9 R 0.0 Haze Mostly cloudy 15 - - - -
20/05:30am 20.3 SW 10 13 1010.6 - 0.0 - Cloudy 10 - - - -
20/05:07am 20.2 SW 11 14 1010.4 - 0.0 - Partly cloudy 10 - - - -
20/05:00am 20.2 SW 11 14 1010.4 - 0.0 - Partly cloudy 10 - - - -
20/04:42am 20.3 SW 10 15 1010.3 - 0.0 - Partly cloudy 10 - - - -
20/04:30am 20.2 SW 11 14 1010.2 - 0.0 - Cloudy 10 - - - -
20/04:25am 20.3 SW 11 13 1010.1 - 0.0 - Partly cloudy 10 - - - -
20/04:00am 20.3 SW 9 13 1009.9 - 0.0 - Cloudy 10 - - - -
20/03:30am 20.2 SW 9 11 1009.8 - 0.0 - Partly cloudy 10 - - - -
20/03:00am 20.2 SW 10 13 1009.3 - 0.0 - Cloudy 10 - - - -
20/02:30am 20.1 SW 9 11 1009.6 - 0.0 - Cloudy 9 - - - -
20/02:00am 19.8 SSW 8 15 1009.6 - 0.0 - Partly cloudy 9 - - - -
20/01:33am 19.7 SSW 9 11 1009.9 - 0.0 - Partly cloudy 9 - - - -
20/01:30am 19.7 SSW 9 11 1010.0 - 0.0 - Partly cloudy 9 - - - -
20/01:29am 19.7 SSW 8 11 1010.0 - 0.0 - Partly cloudy 9 - - - -
20/01:09am 19.9 SSW 7 11 1010.1 - 0.0 - Partly cloudy 9 - - - -
20/01:00am 19.9 SSW 9 13 1010.1 - 0.0 - Partly cloudy 9 - - - -
20/12:46am 20.0 SSW 10 13 1010.2 - 0.0 - Partly cloudy 9 - - - -
20/12:30am 20.2 SSW 10 14 1010.3 - 0.0 - Partly cloudy 10 - - - -
20/12:09am 20.5 SSW 11 14 1010.7 - 0.0 - Partly cloudy 10 - - - -
20/12:00am 20.6 SSW 11 15 1010.8 - 0.0 - Cloudy 10 - - - -
 
Date/Time
WST
Temp

°C
Wind Pressure Rain
since 9am
mm
Weather Cloud Vis
km
Sea
Height
m
Swell
Dir
 
Speed
knots
Gust
knots
hPa Trend Height
m
Period
s
Dir
19/11:45pm 20.5 SSW 11 15 1011.1 - 0.0 - Partly cloudy 10 - - - -
19/11:33pm 20.3 SSW 10 14 1011.1 - 0.0 - Partly cloudy 10 - - - -
19/11:30pm 20.3 SSW 10 14 1011.1 - 0.0 - Partly cloudy 10 - - - -
19/11:00pm 20.1 SSW 8 10 1011.2 - 0.0 - - 10 - - - -
19/10:30pm 20.3 SSW 9 12 1011.0 - 0.0 - - 10 - - - -
19/10:00pm 20.4 SW 8 11 1011.1 - 0.0 - - 10 - - - -
19/09:30pm 20.7 SW 9 13 1010.8 - 0.0 - - 10 - - - -
19/09:00pm 20.8 SW 9 12 1010.4 - 0.0 - - 10 - - - -
19/08:30pm 20.9 SW 10 13 1010.2 - 0.0 - - 10 - - - -
19/08:00pm 21.1 SW 10 13 1010.0 - 0.0 - - 10 - - - -
19/07:30pm 21.4 SW 12 16 1009.5 - 0.0 - Partly cloudy 10 - - - -
19/07:00pm 21.9 SW 13 16 1009.2 - 0.0 - Partly cloudy 10 - - - -
19/06:30pm 22.9 SW 12 18 1009.0 - 0.0 - - 10 - - - -
19/06:00pm 23.5 WSW 14 18 1008.5 - 0.0 - - 10 - - - -
19/05:30pm 24.8 WSW 12 16 1008.0 - 0.0 - - 10 - - - -
19/05:00pm 25.6 W 12 15 1007.7 - 0.0 - - 10 - - - -
19/04:30pm 26.4 WSW 11 15 1007.6 - 0.0 - - 10 - - - -
19/04:00pm 27.8 W 13 17 1007.7 - 0.0 - - 10 - - - -
19/03:30pm 29.1 SW 11 16 1007.5 - 0.0 - - 10 - - - -
19/03:00pm 28.8 SW 11 14 1007.7 R 0.0 Fine Mostly cloudy 30 - - - -
19/02:30pm 29.1 SW 12 15 1007.7 - 0.0 - - 10 - - - -
19/02:00pm 30.2 SW 11 15 1007.8 - 0.0 - - 10 - - - -
19/01:30pm 29.5 WSW 11 16 1008.0 - 0.0 - - 10 - - - -
19/01:00pm 29.5 SW 11 15 1008.1 - 0.0 - - 10 - - - -
19/12:30pm 30.2 WSW 11 15 1008.1 - 0.0 - - 10 - - - -
19/12:00pm 29.6 WSW 11 15 1008.1 R 0.0 Fine Partly cloudy 30 - - - -
19/11:30am 30.0 SW 9 13 1008.1 - 0.0 - - 10 - - - -
19/11:00am 30.1 SW 9 13 1008.4 - 0.0 - - 10 - - - -
19/10:30am 29.0 SW 9 13 1008.4 - 0.0 - - 10 - - - -
19/10:00am 28.5 SW 9 12 1008.4 - 0.0 - - 10 - - - -
19/09:30am 28.6 SW 11 13 1008.5 - 0.0 - - 10 - - - -
19/09:00am 27.5 S 5 8 1008.7 F 0.0 Fine Mostly clear 30 - - - -
19/08:30am 26.0 S 6 9 1009.0 - 0.0 - - 10 - - - -
19/08:00am 24.1 SSE 5 8 1009.1 - 0.0 - - 10 - - - -
19/07:30am 22.1 SSE 5 7 1009.2 - 0.0 - - 10 - - - -
19/07:00am 20.2 SE 4 5 1009.2 - 0.0 - - 10 - - - -
19/06:30am 18.0 CALM 0 3 1009.2 - 0.0 - - 10 - - - -
19/06:00am 16.1 SE 3 4 1009.0 F 0.0 Fine Partly cloudy 30 - - - -
19/05:30am 15.3 CALM 0 0 1009.0 - 0.0 - Partly cloudy 10 - - - -
19/05:00am 15.0 SSE 3 4 1008.9 - 0.0 - - 10 - - - -
19/04:30am 15.2 SE 3 4 1008.6 - 0.0 - Partly cloudy 10 - - - -
19/04:00am 15.5 SSE 5 6 1008.5 - 0.0 - Partly cloudy 10 - - - -
19/03:30am 15.4 SE 3 5 1008.9 - 0.0 - - 10 - - - -
19/03:00am 17.0 SE 7 8 1008.8 - 0.0 - - 10 - - - -
19/02:30am 19.2 S 10 14 1009.0 - 0.0 - - 10 - - - -
19/02:00am 19.2 S 10 14 1009.0 - 0.0 - - 10 - - - -
19/01:30am 19.2 S 10 13 1009.3 - 0.0 - - 10 - - - -
19/01:00am 19.5 S 9 13 1009.7 - 0.0 - - 10 - - - -
19/12:30am 19.6 S 10 14 1010.0 - 0.0 - - 10 - - - -
19/12:00am 19.9 S 13 16 1010.0 - 0.0 - - 10 - - - -
 
Date/Time
WST
Temp

°C
Wind Pressure Rain
since 9am
mm
Weather Cloud Vis
km
Sea
Height
m
Swell
Dir
 
Speed
knots
Gust
knots
hPa Trend Height
m
Period
s
Dir
18/11:30pm 20.1 S 14 19 1010.4 - 0.0 - - 10 - - - -
18/11:00pm 20.2 S 15 20 1010.5 - 0.0 - - 10 - - - -
18/10:30pm 20.3 S 16 23 1010.7 - 0.0 - - 10 - - - -
18/10:00pm 20.5 S 17 24 1010.7 - 0.0 - - 10 - - - -
18/09:30pm 20.9 S 19 25 1010.7 - 0.0 - - 10 - - - -
18/09:00pm 21.5 S 21 31 1010.1 - 0.0 - - 10 - - - -
18/08:30pm 21.5 S 20 26 1010.3 - 0.0 - - 10 - - - -
18/08:00pm 21.8 S 17 21 1010.3 - 0.0 - - 10 - - - -
18/07:30pm 22.1 SSE 17 25 1010.2 - 0.0 - - 10 - - - -
18/07:00pm 22.9 SSE 17 23 1010.1 - 0.0 - - 10 - - - -
18/06:30pm 24.2 SSE 20 25 1009.7 - 0.0 - - 10 - - - -
18/06:00pm 25.2 SSE 24 29 1009.4 - 0.0 - - 10 - - - -
18/05:30pm 26.3 S 23 29 1009.0 - 0.0 - - 10 - - - -
18/05:00pm 27.6 S 24 31 1009.1 - 0.0 - - 10 - - - -
18/04:30pm 27.9 S 25 32 1009.0 - 0.0 - - 10 - - - -
18/04:00pm 28.4 S 23 31 1009.2 - 0.0 - - 10 - - - -
18/03:30pm 28.6 S 23 28 1009.4 - 0.0 - - 10 - - - -
18/03:00pm 29.6 S 20 26 1009.4 F 0.0 Fine Clear 30 - - - -
18/02:30pm 30.4 S 21 27 1009.7 - 0.0 - - 10 - - - -
18/02:00pm 30.3 SSW 22 26 1010.0 - 0.0 - - 10 - - - -
18/01:30pm 29.7 SSW 20 26 1010.1 - 0.0 - - 10 - - - -
18/01:00pm 30.7 S 19 24 1010.4 - 0.0 - - 10 - - - -
18/12:30pm 30.8 SSW 20 25 1010.6 - 0.0 - - 10 - - - -
18/12:00pm 31.5 SSW 18 24 1010.7 F 0.0 Fine Clear 30 - - - -
18/11:30am 31.6 SSW 15 20 1011.2 - 0.0 - - 10 - - - -
18/11:00am 32.1 SSE 13 19 1011.6 - 0.0 - - 10 - - - -
18/10:30am 31.4 SE 12 17 1011.8 - 0.0 - - 10 - - - -
18/10:00am 30.2 ESE 13 19 1012.3 - 0.0 - - 10 - - - -
18/09:30am 29.3 ESE 13 18 1012.4 - 0.0 - - 10 - - - -
18/09:00am 27.8 ESE 14 18 1012.5 F 0.0 Fine Clear 30 - - - -
18/08:30am 24.2 SSE 9 13 1012.9 - 0.0 - - 10 - - - -
18/08:00am 21.3 SE 8 9 1013.2 - 0.0 - - 10 - - - -
18/07:30am 18.5 SSE 9 11 1013.1 - 0.0 - - 10 - - - -
18/07:00am 16.8 SSE 10 12 1013.1 - 0.0 - - 10 - - - -
18/06:30am 15.2 SSE 8 10 1012.8 - 0.0 - - 10 - - - -
18/06:00am 14.3 SE 7 9 1012.6 R 0.0 Haze Clear 25 - - - -
18/05:30am 13.4 SE 7 9 1012.4 - 0.0 - - 10 - - - -
18/05:00am 13.6 SSE 8 9 1012.2 - 0.0 - - 10 - - - -
18/04:30am 14.2 SE 8 11 1012.0 - 0.0 - - 10 - - - -
18/04:00am 14.5 SE 8 11 1011.8 - 0.0 - - 10 - - - -
18/03:30am 15.0 SE 10 12 1011.6 - 0.0 - - 10 - - - -
18/03:00am 15.5 SE 9 12 1011.5 - 0.0 - - 10 - - - -
18/02:30am 16.0 SSE 9 12 1011.6 - 0.0 - - 10 - - - -
18/02:00am 15.7 SSE 7 9 1011.8 - 0.0 - - 10 - - - -
18/01:30am 15.8 SE 8 10 1012.0 - 0.0 - - 10 - - - -
18/01:00am 16.7 SSE 11 14 1012.0 - 0.0 - - 10 - - - -
18/12:30am 17.7 SSE 14 18 1012.2 - 0.0 - - 10 - - - -
18/12:00am 17.8 SSE 15 19 1012.3 - 0.0 - - 10 - - - -
 
Date/Time
WST
Temp

°C
Wind Pressure Rain
since 9am
mm
Weather Cloud Vis
km
Sea
Height
m
Swell
Dir
 
Speed
knots
Gust
knots
hPa Trend Height
m
Period
s
Dir
17/11:30pm 18.0 SSE 15 20 1012.5 - 0.0 - - 10 - - - -
17/11:00pm 18.5 S 15 19 1012.8 - 0.0 - Partly cloudy 10 - - - -
17/10:30pm 18.2 S 15 19 1012.8 - 0.0 - - 10 - - - -
17/10:00pm 18.3 S 17 22 1012.8 - 0.0 - - 10 - - - -
17/09:30pm 18.4 S 16 23 1012.6 - 0.0 - - 10 - - - -
17/09:00pm 18.4 S 15 23 1012.3 S 0.0 Haze Clear 25 - - - -
17/08:30pm 18.3 S 15 20 1012.2 - 0.0 - Mostly clear 10 - - - -
17/08:00pm 18.4 S 17 24 1012.0 - 0.0 - Mostly clear 10 - - - -
17/07:30pm 18.6 S 18 23 1011.8 - 0.0 - Mostly clear 10 - - - -
17/07:00pm 19.1 S 21 27 1011.4 - 0.0 - Mostly clear 10 - - - -
17/06:30pm 19.7 S 21 26 1011.4 - 0.0 - Mostly clear 10 - - - -
17/06:00pm 20.3 S 20 25 1011.1 S 0.0 Haze Mostly clear 25 - - - -
17/05:30pm 20.9 S 21 26 1011.1 - 0.0 - Mostly clear 10 - - - -
17/05:00pm 21.2 S 20 26 1011.0 - 0.0 - Mostly clear 10 - - - -
17/04:30pm 21.3 S 20 27 1010.8 - 0.0 - Mostly clear 10 - - - -
17/04:00pm 22.5 S 21 28 1010.9 - 0.0 - Mostly clear 10 - - - -
17/03:30pm 22.5 S 19 27 1010.9 - 0.0 - Mostly clear 10 - - - -
17/03:00pm 23.6 SSW 17 24 1010.9 S 0.0 Haze Mostly clear 25 - - - -
17/02:30pm 24.1 S 18 24 1011.2 - 0.0 - Mostly clear 10 - - - -
17/02:00pm 23.7 S 17 23 1011.4 - 0.0 - Mostly clear 10 - - - -
17/01:30pm 23.0 S 17 23 1011.5 - 0.0 - Mostly clear 10 - - - -
17/01:00pm 23.1 S 17 23 1011.6 - 0.0 - Mostly clear 10 - - - -
17/12:30pm 22.9 SSW 16 24 1011.7 - 0.0 - Mostly clear 10 - - - -
17/12:00pm 23.2 SSW 17 24 1011.9 R 0.0 Fine Mostly clear 30 - - - -
17/11:30am 22.8 S 16 21 1012.3 - 0.0 - Mostly clear 10 - - - -
17/11:00am 22.5 S 16 23 1012.5 - 0.0 - Mostly clear 10 - - - -
17/10:30am 22.7 S 17 23 1012.5 - 0.0 - Mostly clear 10 - - - -
17/10:00am 21.8 S 19 26 1012.6 - 0.0 - Partly cloudy 10 - - - -
17/09:30am 21.2 SSE 17 22 1012.7 - 0.0 - Mostly cloudy 10 - - - -
17/09:00am 21.3 S 16 25 1012.7 R 0.0 Fine Mostly cloudy 30 - - - -

Other Formats:

Comma delimited format used in spreadsheet applications
http://www.bom.gov.au/fwo/IDW60701/IDW60701.94403.axf

JavaScript Object Notation format (JSON) in row-major order
http://www.bom.gov.au/fwo/IDW60701/IDW60701.94403.json